Main page
METAR-TAF:

METAR-TAF

Airports :

Oil platform

Heimdal, Norway

latitude: 59-34-12N, longitude: 2-13-48E, elevation: 10 m

Current weather observation

The report was made 13 minutes ago, at 19:20 UTC
Wind 14 kt from the Southwest
Temperature 12°C
Humidity 88%
Pressure 1009 hPa
Visibility 10 km or more

METAR: ENHM 211920Z AUTO 22014KT 9999NDV BKN030/// OVC034/// 12/10 Q1009 W13/S4

Time: 21:33 (19:33 UTC)

Forecast

The report was made 5 hours and 3 minutes ago, at 14:30 UTC
Forecast valid from 21 at 14 UTC to 21 at 17 UTC
Wind 17 kt from the Southwest
Visibility 10 km or more
Few clouds at a height of 1200 ft
Scattered clouds at a height of 2500 ft

TAF: ENHM 211430Z 2114/2117 23017KT 9999 FEW012 SCT025

Weather observations and forecasts of more than 4000 airports (METAR and TAF reports).

The available stations are represented by yellow and red dots on the map.

Hover mouse over dot to see the name of the station.

Then click to see weather observations and forecasts.

To change the map : click on the green buttons with a black cross to zoom in, on the green button with a dash to zoom out, or on the green arrows for adjacent maps.


METAR-TAF: